Time;durP1;ratioP1;P1;durP2;ratioP2;P2;SDS_P1;SDS_P2;PMS_P1;PMS_P2;Temp;Humidity;BMP_temperature;BMP_pressure;BME280_temperature;BME280_humidity;BME280_pressure;Samples;Min_cycle;Max_cycle;Signal;HPM_P1;HPM_P2
2022/01/28 00:01:34;;;;;;;;;;;4.60;99.90;;;1.64;100.00;101867.75;5009228;28;19930;-75
2022/01/28 00:04:12;;;;;;;;;;;3.80;99.90;;;1.61;100.00;101856.34;5007769;28;19930;-75
2022/01/28 00:06:39;;;;;;;;;;;2.50;99.90;;;1.64;100.00;101872.94;5009463;28;19936;-75
2022/01/28 00:09:06;;;;;;;;;;;5.10;99.90;;;1.63;100.00;101865.94;5009291;28;20329;-75
2022/01/28 00:11:33;;;;;;;;;;;2.50;99.90;;;1.64;100.00;101864.25;4992973;28;19976;-75
2022/01/28 00:14:29;;;;;;;;;;;2.70;99.90;;;1.67;100.00;101869.53;4991565;28;19932;-76
2022/01/28 00:38:52;;;;;;;;;;;2.30;99.90;;;1.72;100.00;101867.13;5008957;28;19929;-76
2022/01/28 00:41:19;;;;;;;;;;;4.00;99.90;;;1.71;100.00;101879.19;5010205;28;19937;-76
2022/01/28 00:43:46;;;;;;;;;;;2.10;99.90;;;1.68;100.00;101873.91;5007774;28;20354;-76
2022/01/28 00:46:13;;;;;;;;;;;4.70;99.90;;;1.77;100.00;101874.25;5008709;28;19937;-76
2022/01/28 00:48:40;;;;;;;;;;;2.50;99.90;;;1.72;100.00;101883.59;5007891;28;19925;-77
2022/01/28 00:51:06;;;;;;;;;;;4.50;99.90;;;1.73;100.00;101887.97;5009956;28;19987;-76
2022/01/28 00:53:33;;;;;;;;;;;2.70;99.90;;;1.75;100.00;101883.69;5023797;28;19930;-76
2022/01/28 00:56:00;;;;;;;;;;;2.50;99.90;;;1.71;100.00;101884.38;5007974;28;19936;-76
2022/01/28 00:58:27;;;;;;;;;;;2.40;99.90;;;1.70;100.00;101883.53;4991968;28;19936;-76
2022/01/28 01:00:54;;;;;;;;;;;4.20;99.90;;;1.68;100.00;101885.19;5008220;28;19929;-76
2022/01/28 01:03:21;;;;;;;;;;;2.40;99.90;;;1.70;100.00;101901.69;4991213;28;20438;-76
2022/01/28 01:05:48;;;;;;;;;;;2.30;99.90;;;1.72;100.00;101900.88;4991998;28;20025;-75
2022/01/28 01:08:15;;;;;;;;;;;5.20;99.90;;;1.70;100.00;101891.31;5009618;28;19930;-76
2022/01/28 01:10:42;;;;;;;;;;;4.70;99.90;;;1.68;100.00;101889.47;5007949;28;20029;-77
2022/01/28 01:13:09;;;;;;;;;;;2.50;99.90;;;1.65;100.00;101900.66;4991026;28;19925;-76
2022/01/28 01:15:41;;;;;;;;;;;4.60;99.90;;;1.67;100.00;101914.56;5008737;28;20345;-76
2022/01/28 01:18:22;;;;;;;;;;;4.00;99.90;;;1.70;100.00;101919.84;5007967;28;19929;-76
2022/01/28 01:20:58;;;;;;;;;;;2.50;99.90;;;1.72;100.00;101917.34;5040253;28;19956;-76
2022/01/28 01:23:29;;;;;;;;;;;3.90;99.90;;;1.73;100.00;101921.69;5007672;28;20679;-76
2022/01/28 01:28:34;;;;;;;;;;;1.50;99.90;;;1.75;100.00;101929.50;5009945;28;19929;-77
2022/01/28 01:31:04;;;;;;;;;;;2.50;99.90;;;1.67;100.00;101931.81;5009961;28;19980;-76
2022/01/28 01:33:37;;;;;;;;;;;2.60;99.90;;;1.73;100.00;101929.47;4991334;28;19929;-76
2022/01/28 01:36:04;;;;;;;;;;;2.60;99.90;;;1.72;100.00;101940.69;5008833;28;20310;-77
2022/01/28 01:38:35;;;;;;;;;;;2.60;99.90;;;1.66;100.00;101954.31;4992034;28;19933;-77
2022/01/28 01:41:06;;;;;;;;;;;2.60;99.90;;;1.68;100.00;101955.25;5009548;28;19929;-77
2022/01/28 01:44:15;;;;;;;;;;;2.70;99.90;;;1.75;100.00;101963.25;5003903;28;19940;-77
2022/01/28 01:52:12;;;;;;;;;;;2.60;99.90;;;1.73;100.00;101972.69;5004977;28;19929;-76
2022/01/28 01:54:41;;;;;;;;;;;2.60;99.90;;;1.72;100.00;101969.22;4987965;28;19937;-75
2022/01/28 01:57:11;;;;;;;;;;;2.90;99.90;;;1.72;100.00;101973.53;4988838;28;19926;-78
2022/01/28 01:59:39;;;;;;;;;;;2.60;99.90;;;1.81;100.00;101966.09;5004551;28;19930;-76
2022/01/28 02:02:07;;;;;;;;;;;2.40;99.90;;;1.79;100.00;101979.00;4988625;28;20660;-76
2022/01/28 02:04:34;;;;;;;;;;;2.60;99.90;;;1.78;100.00;101978.94;5020131;28;19929;-75
2022/01/28 02:07:01;;;;;;;;;;;5.00;99.90;;;1.78;100.00;101987.63;5004042;28;19933;-77
2022/01/28 02:09:28;;;;;;;;;;;2.70;99.90;;;1.83;100.00;101982.63;5004322;28;19933;-77
2022/01/28 02:11:55;;;;;;;;;;;2.50;99.90;;;1.85;100.00;101980.97;5020735;28;19933;-77
2022/01/28 02:14:22;;;;;;;;;;;4.30;99.90;;;1.87;100.00;101975.81;5003013;28;20068;-76
2022/01/28 02:16:48;;;;;;;;;;;2.60;99.90;;;1.91;100.00;102004.53;5004752;28;19930;-76
2022/01/28 02:19:16;;;;;;;;;;;2.80;99.90;;;1.94;100.00;101986.47;4988675;28;19930;-77
2022/01/28 02:21:49;;;;;;;;;;;2.60;99.90;;;2.04;100.00;102002.41;5004814;28;19937;-76
2022/01/28 02:24:21;;;;;;;;;;;3.00;99.90;;;2.09;100.00;102001.75;5003607;28;19944;-76
2022/01/28 02:26:48;;;;;;;;;;;5.70;99.90;;;2.10;100.00;102002.63;5004089;28;19929;-77
2022/01/28 02:29:26;;;;;;;;;;;5.30;99.90;;;2.09;100.00;101999.16;5004007;28;19945;-75
2022/01/28 02:31:53;;;;;;;;;;;2.70;99.90;;;2.20;100.00;102007.34;5001991;28;20016;-77
2022/01/28 02:34:20;;;;;;;;;;;2.90;99.90;;;2.21;100.00;102005.66;5003060;28;19937;-77
2022/01/28 02:36:47;;;;;;;;;;;3.00;99.90;;;2.23;100.00;102006.59;5003821;28;20016;-75
2022/01/28 02:39:14;;;;;;;;;;;3.20;99.90;;;2.29;100.00;102003.34;5003413;28;19984;-76
2022/01/28 02:41:45;;;;;;;;;;;3.00;99.90;;;2.25;100.00;101994.53;4987079;28;19957;-77
2022/01/28 02:44:23;;;;;;;;;;;3.60;99.90;;;2.30;100.00;102005.09;5001547;28;19930;-76
2022/01/28 02:47:00;;;;;;;;;;;5.60;99.90;;;2.35;100.00;101990.56;5001967;28;19933;-76
2022/01/28 02:49:33;;;;;;;;;;;3.00;99.90;;;2.38;100.00;101999.34;5002302;28;19934;-76
2022/01/28 02:52:01;;;;;;;;;;;3.10;99.90;;;2.40;100.00;101986.41;4987725;28;19930;-77
2022/01/28 02:54:29;;;;;;;;;;;3.20;99.90;;;2.44;100.00;101990.91;4986406;28;19925;-75
2022/01/28 02:57:01;;;;;;;;;;;4.20;99.90;;;2.43;100.00;101973.53;4989279;28;20384;-75
2022/01/28 02:59:28;;;;;;;;;;;4.40;99.90;;;2.47;100.00;101982.31;4986734;28;19930;-75
2022/01/28 03:01:55;;;;;;;;;;;3.30;99.90;;;2.49;100.00;101984.13;4986636;28;19929;-75
2022/01/28 03:05:01;;;;;;;;;;;3.20;99.90;;;2.45;100.00;101978.78;4986606;28;19937;-76
2022/01/28 03:07:23;;;;;;;;;;;3.30;99.90;;;2.41;100.00;101980.38;4999319;28;19937;-75
2022/01/28 03:10:12;;;;;;;;;;;3.10;99.90;;;2.39;100.00;101974.25;4986893;28;20663;-75
2022/01/28 03:12:59;;;;;;;;;;;3.20;99.90;;;2.39;100.00;101980.34;5001735;28;19930;-75
2022/01/28 03:15:25;;;;;;;;;;;3.20;99.90;;;2.41;100.00;101975.19;5006559;28;20347;-77
2022/01/28 03:18:08;;;;;;;;;;;3.20;99.90;;;2.32;100.00;101975.72;4991191;28;19936;-77
2022/01/28 03:20:40;;;;;;;;;;;4.50;99.90;;;2.33;100.00;101980.09;5004400;28;19926;-76
2022/01/28 03:23:07;;;;;;;;;;;3.20;99.90;;;2.30;100.00;101984.31;5004838;28;19934;-75
2022/01/28 03:25:36;;;;;;;;;;;3.10;99.90;;;2.30;100.00;101994.72;5005994;28;19937;-75
2022/01/28 03:28:03;;;;;;;;;;;3.10;99.90;;;2.29;100.00;101995.53;5006488;28;19930;-75
2022/01/28 03:30:30;;;;;;;;;;;2.90;99.90;;;2.26;100.00;101989.41;5034460;28;19926;-74
2022/01/28 03:32:57;;;;;;;;;;;3.00;99.90;;;2.25;100.00;102000.59;5008423;28;20302;-75
2022/01/28 03:35:29;;;;;;;;;;;4.10;99.90;;;2.22;100.00;102003.09;5010239;28;19960;-75
2022/01/28 03:38:00;;;;;;;;;;;2.80;99.90;;;2.24;100.00;102011.81;5009727;28;20379;-75
2022/01/28 03:40:33;;;;;;;;;;;3.10;99.90;;;2.24;100.00;102014.41;5011218;28;19933;-75
2022/01/28 03:43:00;;;;;;;;;;;5.70;99.90;;;2.25;100.00;102023.09;4993037;28;20574;-75
2022/01/28 03:45:27;;;;;;;;;;;4.40;99.90;;;2.28;100.00;102028.41;5009014;28;20441;-75
2022/01/28 03:47:53;;;;;;;;;;;3.00;99.90;;;2.24;100.00;102027.41;4993239;28;19929;-76
2022/01/28 03:50:20;;;;;;;;;;;3.10;99.90;;;2.23;100.00;102038.63;4993058;28;19929;-75
2022/01/28 03:52:47;;;;;;;;;;;3.00;99.90;;;2.24;100.00;102034.31;5008942;28;20012;-74
2022/01/28 03:55:15;;;;;;;;;;;4.90;99.90;;;2.22;100.00;102035.97;5008998;28;19925;-75
2022/01/28 03:57:42;;;;;;;;;;;2.90;99.90;;;2.29;100.00;102037.09;5009421;28;19936;-75
2022/01/28 04:00:10;;;;;;;;;;;3.20;99.90;;;2.35;100.00;102052.91;4993660;28;20580;-75
2022/01/28 04:02:41;;;;;;;;;;;5.20;99.90;;;2.38;100.00;102045.22;4992047;28;19933;-76
2022/01/28 04:11:24;;;;;;;;;;;4.90;99.90;;;2.47;100.00;102065.44;4992977;28;20031;-76
2022/01/28 04:13:33;;;;;;;;;;;4.30;99.90;;;2.62;100.00;102076.41;5010411;28;20409;-76
2022/01/28 04:18:27;;;;;;;;;;;3.20;99.90;;;2.72;100.00;102082.81;5026181;28;19936;-74
2022/01/28 04:20:53;;;;;;;;;;;3.20;99.90;;;2.65;100.00;102081.75;5008831;28;20043;-76
2022/01/28 04:23:20;;;;;;;;;;;3.60;99.90;;;2.68;100.00;102087.03;5006736;28;19932;-75
2022/01/28 04:25:47;;;;;;;;;;;3.20;99.90;;;2.72;100.00;102092.34;5008606;28;19933;-75
2022/01/28 04:28:14;;;;;;;;;;;3.50;99.90;;;2.68;100.00;102084.44;4992570;28;19929;-75
2022/01/28 04:30:41;;;;;;;;;;;5.60;99.90;;;2.70;100.00;102094.88;5010106;28;19937;-75
2022/01/28 04:33:09;;;;;;;;;;;3.40;99.90;;;2.71;100.00;102099.25;5008034;28;20028;-76
2022/01/28 04:35:37;;;;;;;;;;;4.30;99.90;;;2.69;100.00;102107.00;4991721;28;19934;-76
2022/01/28 04:40:40;;;;;;;;;;;4.30;99.90;;;2.69;100.00;102101.81;5008447;28;19929;-76
2022/01/28 04:43:23;;;;;;;;;;;3.40;99.90;;;2.64;100.00;102125.84;4992494;28;19933;-76
2022/01/28 04:46:11;;;;;;;;;;;4.60;99.90;;;2.65;100.00;102128.53;4994470;28;19929;-77
2022/01/28 04:48:49;;;;;;;;;;;5.90;99.90;;;2.54;100.00;102114.25;4992312;28;19940;-76
2022/01/28 04:54:21;;;;;;;;;;;3.50;99.90;;;2.36;100.00;102107.53;4991337;28;19929;-76
2022/01/28 04:56:50;;;;;;;;;;;2.90;99.90;;;2.35;100.00;102116.16;5009386;28;20473;-76
2022/01/28 04:59:39;;;;;;;;;;;5.80;99.90;;;2.31;100.00;102113.38;5026918;28;20404;-80
2022/01/28 05:08:11;;;;;;;;;;;2.80;99.90;;;2.16;100.00;102124.03;5041033;28;19930;-76
2022/01/28 05:26:36;;;;;;;;;;;2.90;99.90;;;2.32;100.00;102133.31;5009013;28;20325;-76
2022/01/28 05:29:04;;;;;;;;;;;3.10;99.90;;;2.29;100.00;102130.63;5006290;28;19930;-75
2022/01/28 05:31:31;;;;;;;;;;;4.60;99.90;;;2.29;100.00;102144.47;5008721;28;20427;-76
2022/01/28 05:34:00;;;;;;;;;;;3.10;99.90;;;2.27;100.00;102148.72;4990062;28;19937;-76
2022/01/28 05:36:27;;;;;;;;;;;4.10;99.90;;;2.36;100.00;102143.00;5007800;28;19929;-76
2022/01/28 05:38:54;;;;;;;;;;;3.10;99.90;;;2.35;100.00;102151.63;5007120;28;19929;-76
2022/01/28 05:41:21;;;;;;;;;;;3.80;99.90;;;2.34;100.00;102155.03;4991073;28;19933;-76
2022/01/28 05:43:48;;;;;;;;;;;5.70;99.90;;;2.43;100.00;102158.00;5007320;28;20438;-77
2022/01/28 05:46:17;;;;;;;;;;;5.40;99.90;;;2.36;100.00;102153.38;5007836;28;19997;-76
2022/01/28 05:48:45;;;;;;;;;;;3.20;99.90;;;2.29;100.00;102161.78;5007428;28;19976;-76
2022/01/28 05:51:12;;;;;;;;;;;5.70;99.90;;;2.40;100.00;102165.66;5007576;28;19929;-76
2022/01/28 05:53:39;;;;;;;;;;;4.30;99.90;;;2.43;100.00;102168.41;4989988;28;19925;-76
2022/01/28 05:56:06;;;;;;;;;;;3.20;99.90;;;2.40;100.00;102171.75;4990456;28;19929;-76
2022/01/28 05:58:33;;;;;;;;;;;3.40;99.90;;;2.37;100.00;102171.66;4991549;28;19929;-76
2022/01/28 06:01:00;;;;;;;;;;;5.50;99.90;;;2.45;100.00;102186.63;4991141;28;19925;-76
2022/01/28 06:03:28;;;;;;;;;;;3.40;99.90;;;2.46;100.00;102191.91;5005955;28;19988;-76
2022/01/28 06:05:55;;;;;;;;;;;3.70;99.90;;;2.44;100.00;102195.25;5023395;28;19973;-76
2022/01/28 06:08:22;;;;;;;;;;;5.00;99.90;;;2.43;100.00;102197.00;4990986;28;19937;-76
2022/01/28 06:10:49;;;;;;;;;;;5.70;99.90;;;2.51;100.00;102190.34;5006984;28;20409;-76
2022/01/28 06:13:15;;;;;;;;;;;2.00;99.90;;;2.51;100.00;102192.09;5007401;28;19933;-76
2022/01/28 06:15:43;;;;;;;;;;;3.20;99.90;;;2.57;100.00;102201.81;4990437;28;19929;-77
2022/01/28 06:18:11;;;;;;;;;;;3.40;99.90;;;2.59;100.00;102202.78;5006542;28;19930;-76
2022/01/28 06:20:38;;;;;;;;;;;4.80;99.90;;;2.65;100.00;102216.91;5023350;28;19930;-76
2022/01/28 06:23:11;;;;;;;;;;;3.40;99.90;;;2.71;100.00;102213.63;5006229;28;19929;-76
2022/01/28 06:25:39;;;;;;;;;;;5.90;99.90;;;2.71;100.00;102205.81;5006502;28;19941;-76
2022/01/28 06:28:06;;;;;;;;;;;5.20;99.90;;;2.75;100.00;102217.22;5003595;28;19936;-76
2022/01/28 06:30:33;;;;;;;;;;;3.30;99.90;;;2.72;100.00;102220.59;5006651;28;19929;-76
2022/01/28 06:33:00;;;;;;;;;;;4.90;99.90;;;2.74;100.00;102218.97;4989258;28;19930;-76
2022/01/28 06:35:27;;;;;;;;;;;3.70;99.90;;;2.79;100.00;102203.50;5022359;28;19930;-76
2022/01/28 06:37:53;;;;;;;;;;;4.90;99.90;;;2.77;100.00;102202.56;5006700;28;20391;-76
2022/01/28 06:40:20;;;;;;;;;;;3.50;99.90;;;2.79;100.00;102208.72;5006831;28;19936;-76
2022/01/28 06:42:47;;;;;;;;;;;3.40;99.90;;;2.82;100.00;102195.84;5005882;28;19933;-76
2022/01/28 06:45:14;;;;;;;;;;;3.40;99.90;;;2.83;100.00;102213.22;5038900;28;19932;-76
2022/01/28 06:47:41;;;;;;;;;;;4.70;99.90;;;2.80;100.00;102211.38;5003742;28;19930;-76
2022/01/28 06:50:09;;;;;;;;;;;5.60;99.90;;;2.81;100.00;102209.66;5043108;28;19941;-76
2022/01/28 06:52:37;;;;;;;;;;;3.40;99.90;;;2.86;100.00;102220.22;4993706;28;19929;-76
2022/01/28 06:55:05;;;;;;;;;;;3.60;99.90;;;2.89;100.00;102228.13;5026884;28;20397;-76
2022/01/28 06:57:32;;;;;;;;;;;3.50;99.90;;;2.90;100.00;102214.34;4993784;28;19937;-76
2022/01/28 06:59:59;;;;;;;;;;;4.00;99.90;;;2.89;100.00;102212.53;5026409;28;19932;-76
2022/01/28 07:02:26;;;;;;;;;;;4.30;99.90;;;2.82;100.00;102219.25;5010320;28;19932;-76
2022/01/28 07:04:53;;;;;;;;;;;3.60;99.90;;;2.79;100.00;102224.31;5013303;28;19936;-76
2022/01/28 07:07:24;;;;;;;;;;;3.50;99.90;;;2.78;100.00;102233.84;4998787;28;20020;-76
2022/01/28 07:09:52;;;;;;;;;;;5.10;99.90;;;2.77;100.00;102231.16;4990592;28;20028;-76
2022/01/28 07:12:20;;;;;;;;;;;3.50;99.90;;;2.71;100.00;102228.34;4975924;28;19930;-77
2022/01/28 07:14:47;;;;;;;;;;;4.80;99.90;;;2.69;100.00;102243.88;5005977;28;19929;-77
2022/01/28 07:17:15;;;;;;;;;;;5.60;99.90;;;2.66;100.00;102249.84;5012151;28;19936;-77
2022/01/28 07:19:42;;;;;;;;;;;3.50;99.90;;;2.68;100.00;102252.50;4999884;28;19930;-78
2022/01/28 07:22:09;;;;;;;;;;;3.50;99.90;;;2.78;100.00;102265.03;5015526;28;19937;-78
2022/01/28 07:24:36;;;;;;;;;;;4.30;99.90;;;2.78;100.00;102266.72;5011230;28;19976;-78
2022/01/28 07:27:03;;;;;;;;;;;3.50;99.90;;;2.79;100.00;102274.59;5013307;28;19929;-76
2022/01/28 07:29:35;;;;;;;;;;;3.40;99.90;;;2.74;100.00;102280.44;5006487;28;19926;-76
2022/01/28 07:32:02;;;;;;;;;;;4.60;99.90;;;2.73;100.00;102295.16;5042103;28;19961;-75
2022/01/28 07:34:29;;;;;;;;;;;3.60;99.90;;;2.65;100.00;102280.97;5020735;28;19926;-75
2022/01/28 07:36:56;;;;;;;;;;;5.20;99.90;;;2.75;100.00;102264.94;5007387;28;19933;-77
2022/01/28 07:39:23;;;;;;;;;;;3.30;99.90;;;2.77;100.00;102272.75;5008820;28;19930;-76
2022/01/28 07:41:50;;;;;;;;;;;5.50;99.90;;;2.78;100.00;102285.84;4992828;28;19935;-76
2022/01/28 07:44:17;;;;;;;;;;;3.70;99.90;;;2.75;100.00;102292.63;5009043;28;19968;-77
2022/01/28 07:46:44;;;;;;;;;;;3.50;99.90;;;2.78;100.00;102287.53;4995757;28;19973;-76
2022/01/28 07:49:15;;;;;;;;;;;5.50;99.90;;;2.80;100.00;102289.38;4990563;28;20020;-76
2022/01/28 07:51:42;;;;;;;;;;;3.40;99.90;;;2.86;100.00;102296.53;4973680;28;20334;-76
2022/01/28 07:54:09;;;;;;;;;;;3.40;99.90;;;2.88;100.00;102299.19;4990340;28;19952;-78
2022/01/28 07:56:36;;;;;;;;;;;3.50;99.90;;;2.91;100.00;102304.53;4991594;28;20402;-77
2022/01/28 07:59:03;;;;;;;;;;;4.40;99.90;;;2.87;100.00;102313.91;4989788;28;19937;-76
2022/01/28 08:01:30;;;;;;;;;;;4.90;99.90;;;2.98;100.00;102312.63;4991048;28;19929;-77
2022/01/28 08:03:57;;;;;;;;;;;5.50;99.90;;;3.01;100.00;102316.16;4999574;28;20024;-76
2022/01/28 08:06:26;;;;;;;;;;;5.00;99.90;;;3.05;100.00;102328.44;5009176;28;19932;-76
2022/01/28 08:08:53;;;;;;;;;;;6.10;99.90;;;3.07;100.00;102325.09;4992726;28;19996;-76
2022/01/28 08:11:20;;;;;;;;;;;5.20;99.90;;;3.12;100.00;102333.94;5010297;28;19961;-77
2022/01/28 08:13:47;;;;;;;;;;;3.70;99.90;;;3.12;100.00;102326.16;4992201;28;19931;-77
2022/01/28 08:16:14;;;;;;;;;;;3.90;99.90;;;3.14;100.00;102334.00;5008841;28;19936;-76
2022/01/28 08:18:41;;;;;;;;;;;3.70;99.90;;;3.21;100.00;102324.75;4992347;28;19929;-77
2022/01/28 08:21:08;;;;;;;;;;;6.20;99.90;;;3.24;100.00;102336.13;5008691;28;19933;-77
2022/01/28 08:23:36;;;;;;;;;;;4.40;99.90;;;3.24;100.00;102338.72;5008436;28;20375;-76
2022/01/28 08:26:03;;;;;;;;;;;3.90;99.90;;;3.31;100.00;102332.03;5008814;28;20051;-76
2022/01/28 08:28:30;;;;;;;;;;;3.30;99.90;;;3.35;100.00;102333.91;5008803;28;19932;-77
2022/01/28 08:30:57;;;;;;;;;;;5.00;99.90;;;3.31;100.00;102349.38;5008382;28;19936;-75
2022/01/28 08:33:24;;;;;;;;;;;5.30;99.90;;;3.42;100.00;102348.03;4991991;28;19930;-76
2022/01/28 08:35:53;;;;;;;;;;;4.10;99.90;;;3.47;100.00;102356.03;5024769;28;19951;-76
2022/01/28 08:38:30;;;;;;;;;;;3.50;99.90;;;3.49;100.00;102351.78;4996134;28;19933;-76
2022/01/28 08:40:59;;;;;;;;;;;3.90;99.90;;;3.49;100.00;102356.97;5003111;28;19930;-76
2022/01/28 08:43:26;;;;;;;;;;;4.50;99.90;;;3.49;100.00;102356.97;5003033;28;19937;-75
2022/01/28 08:45:54;;;;;;;;;;;3.90;99.90;;;3.60;100.00;102363.47;5004748;28;20115;-75
2022/01/28 08:48:21;;;;;;;;;;;4.00;99.90;;;3.60;100.00;102358.25;5004608;28;20283;-76
2022/01/28 08:50:48;;;;;;;;;;;4.00;99.90;;;3.70;100.00;102351.69;5004373;28;20020;-76
2022/01/28 08:53:15;;;;;;;;;;;4.10;99.90;;;3.73;100.00;102351.78;4988448;28;19926;-76
2022/01/28 08:55:42;;;;;;;;;;;4.30;99.90;;;3.72;100.00;102352.63;5004807;28;19953;-75
2022/01/28 08:58:10;;;;;;;;;;;6.40;99.90;;;3.82;100.00;102352.13;5004747;28;20302;-77
2022/01/28 09:00:38;;;;;;;;;;;4.10;99.90;;;3.85;100.00;102360.88;5020800;28;19929;-76
2022/01/28 09:03:05;;;;;;;;;;;5.60;99.90;;;3.84;100.00;102360.00;5020122;28;20020;-76
2022/01/28 09:05:33;;;;;;;;;;;6.00;99.90;;;3.89;100.00;102365.34;5020606;28;19929;-75
2022/01/28 09:08:09;;;;;;;;;;;4.50;99.90;;;3.92;100.00;102360.28;5004724;28;19926;-76
2022/01/28 09:10:41;;;;;;;;;;;4.60;99.90;;;3.94;100.00;102369.91;5027536;28;20016;-76
2022/01/28 09:15:39;;;;;;;;;;;4.60;99.90;;;3.93;100.00;102370.72;5007550;28;20580;-76
2022/01/28 09:18:07;;;;;;;;;;;5.70;99.90;;;4.07;100.00;102363.44;5009337;28;19953;-76
2022/01/28 09:20:34;;;;;;;;;;;5.20;99.90;;;4.06;100.00;102371.19;5024106;28;20412;-76
2022/01/28 09:23:02;;;;;;;;;;;4.50;99.90;;;4.14;100.00;102368.84;5007292;28;19933;-76
2022/01/28 09:25:30;;;;;;;;;;;4.60;99.90;;;4.18;100.00;102363.78;5007920;28;20283;-75
2022/01/28 09:27:57;;;;;;;;;;;6.00;99.90;;;4.25;100.00;102370.97;4991362;28;20394;-76
2022/01/28 09:30:24;;;;;;;;;;;4.90;99.90;;;4.36;100.00;102373.06;5007664;28;19933;-77
2022/01/28 09:32:52;;;;;;;;;;;4.90;99.90;;;4.36;100.00;102370.47;5008084;28;20601;-76
2022/01/28 09:35:19;;;;;;;;;;;4.80;99.90;;;4.37;100.00;102369.63;5023494;28;19937;-76
2022/01/28 09:37:46;;;;;;;;;;;6.50;99.90;;;4.48;100.00;102373.50;5006986;28;19941;-76
2022/01/28 09:40:14;;;;;;;;;;;5.00;99.90;;;4.50;100.00;102374.44;4987159;28;19929;-75
2022/01/28 09:42:43;;;;;;;;;;;3.90;99.90;;;4.61;100.00;102384.34;4982072;28;19933;-77
2022/01/28 09:45:13;;;;;;;;;;;5.00;99.90;;;4.58;100.00;102392.03;5007632;28;19929;-75
2022/01/28 09:47:40;;;;;;;;;;;5.10;99.90;;;4.57;100.00;102400.69;5007789;28;20330;-76
2022/01/28 09:50:08;;;;;;;;;;;6.40;99.90;;;4.56;100.00;102397.22;5006617;28;19964;-77
2022/01/28 09:52:37;;;;;;;;;;;5.10;99.90;;;4.56;100.00;102406.75;5003678;28;19929;-77
2022/01/28 09:55:06;;;;;;;;;;;4.90;99.90;;;4.62;100.00;102406.97;5006567;28;20040;-77
2022/01/28 09:57:33;;;;;;;;;;;5.10;99.90;;;4.61;100.00;102407.81;5022662;28;19991;-76
2022/01/28 10:00:00;;;;;;;;;;;5.70;99.90;;;4.70;100.00;102415.91;5006677;28;20535;-76
2022/01/28 10:03:03;;;;;;;;;;;6.00;99.90;;;4.79;100.00;102413.63;5006145;28;19929;-76
2022/01/28 10:05:35;;;;;;;;;;;5.30;99.90;;;4.74;100.00;102417.78;5007317;28;19937;-77
2022/01/28 10:08:26;;;;;;;;;;;6.10;99.90;;;4.82;100.00;102424.16;5004897;28;20388;-76
2022/01/28 10:11:14;;;;;;;;;;;5.40;99.90;;;4.90;100.00;102418.28;5006650;28;19932;-77
2022/01/28 10:13:47;;;;;;;;;;;5.50;99.90;;;4.89;100.00;102412.19;5006196;28;19962;-77
2022/01/28 10:16:19;;;;;;;;;;;5.40;99.90;;;4.98;100.00;102422.03;5005100;28;20056;-78
2022/01/28 10:19:04;;;;;;;;;;;5.60;99.90;;;4.92;100.00;102414.03;5008369;28;19975;-78
2022/01/28 10:21:45;;;;;;;;;;;5.60;99.90;;;5.05;100.00;102415.28;5007433;28;19929;-78
2022/01/28 10:24:33;;;;;;;;;;;5.40;99.90;;;5.09;100.00;102405.00;5007878;28;19969;-77
2022/01/28 10:27:20;;;;;;;;;;;7.80;99.90;;;5.11;100.00;102398.13;5010542;28;19952;-78
2022/01/28 10:29:47;;;;;;;;;;;5.70;99.90;;;5.06;100.00;102377.94;4978152;28;19965;-77
2022/01/28 10:32:24;;;;;;;;;;;5.70;99.90;;;5.21;100.00;102395.78;4990328;28;20017;-76
2022/01/28 10:35:00;;;;;;;;;;;4.00;99.90;;;5.29;100.00;102406.44;4958833;28;19929;-79
2022/01/28 10:37:32;;;;;;;;;;;6.10;99.90;;;5.33;100.00;102390.94;5003513;28;19930;-77
2022/01/28 10:40:08;;;;;;;;;;;5.80;99.90;;;5.38;100.00;102391.06;4990610;28;20000;-78
2022/01/28 10:43:08;;;;;;;;;;;5.90;99.90;;;5.40;100.00;102384.16;5000925;28;20020;-78
2022/01/28 10:46:04;;;;;;;;;;;5.90;99.90;;;5.61;100.00;102389.16;5001905;28;19933;-78
2022/01/28 10:48:31;;;;;;;;;;;6.00;99.90;;;5.73;100.00;102392.97;4988231;28;19988;-79
2022/01/28 10:50:59;;;;;;;;;;;6.10;99.90;;;5.75;100.00;102384.31;4988759;28;19973;-78
2022/01/28 10:53:27;;;;;;;;;;;6.40;99.90;;;5.75;100.00;102381.69;4971695;28;19929;-78
2022/01/28 10:55:58;;;;;;;;;;;6.30;99.90;;;5.76;100.00;102398.25;5001340;28;19936;-76
2022/01/28 10:58:27;;;;;;;;;;;6.20;99.90;;;5.83;100.00;102405.41;4983835;28;19926;-76
2022/01/28 11:00:57;;;;;;;;;;;6.30;99.90;;;6.04;100.00;102394.72;5001375;28;20025;-77
2022/01/28 11:03:27;;;;;;;;;;;5.00;99.90;;;5.94;100.00;102393.56;4984480;28;19925;-78
2022/01/28 11:05:58;;;;;;;;;;;6.50;99.90;;;5.91;100.00;102390.88;4970076;28;20907;-78
2022/01/28 11:08:29;;;;;;;;;;;6.80;99.90;;;5.92;100.00;102390.03;5002859;28;19934;-79
2022/01/28 11:10:57;;;;;;;;;;;6.30;99.90;;;5.99;100.00;102387.56;5021049;28;20538;-78
2022/01/28 11:13:24;;;;;;;;;;;7.10;99.90;;;6.08;100.00;102399.19;4991838;28;20426;-78
2022/01/28 11:15:51;;;;;;;;;;;6.70;99.90;;;6.13;100.00;102388.00;5007681;28;19936;-79
2022/01/28 11:18:19;;;;;;;;;;;7.30;99.90;;;6.28;100.00;102395.34;4976227;28;19929;-78
2022/01/28 11:21:03;;;;;;;;;;;6.70;99.90;;;6.27;100.00;102383.13;5024172;28;20589;-78
2022/01/28 11:23:39;;;;;;;;;;;6.80;99.90;;;6.43;100.00;102385.28;5005887;28;19945;-79
2022/01/28 11:26:15;;;;;;;;;;;6.90;99.90;;;6.70;100.00;102396.41;4987279;28;19933;-78
2022/01/28 11:28:43;;;;;;;;;;;6.80;99.90;;;6.76;100.00;102386.97;4987256;28;19930;-78
2022/01/28 11:31:11;;;;;;;;;;;7.30;99.90;;;6.87;100.00;102383.72;5003664;28;20470;-78
2022/01/28 11:33:47;;;;;;;;;;;7.30;99.90;;;6.85;100.00;102391.53;5019882;28;19930;-78
2022/01/28 11:36:45;;;;;;;;;;;7.40;99.90;;;6.91;100.00;102396.94;4997162;28;19929;-78
2022/01/28 11:39:28;;;;;;;;;;;9.40;99.90;;;6.80;100.00;102406.25;4999730;28;19969;-78
2022/01/28 11:42:07;;;;;;;;;;;7.40;99.90;;;6.79;100.00;102396.63;4994984;28;20338;-78
2022/01/28 11:44:50;;;;;;;;;;;7.30;99.90;;;6.58;100.00;102387.41;5011056;28;19925;-78
2022/01/28 11:47:25;;;;;;;;;;;7.20;99.90;;;6.60;100.00;102390.06;5010600;28;19937;-79
2022/01/28 11:50:01;;;;;;;;;;;7.10;99.90;;;6.61;100.00;102391.81;4994987;28;19929;-78
2022/01/28 11:52:34;;;;;;;;;;;7.10;99.90;;;6.61;100.00;102384.88;5011993;28;19925;-79
2022/01/28 11:55:28;;;;;;;;;;;7.10;99.90;;;6.58;100.00;102381.28;4994968;28;19930;-80
2022/01/28 11:58:04;;;;;;;;;;;7.10;99.90;;;6.66;100.00;102377.16;5010458;28;19926;-78
2022/01/28 12:00:36;;;;;;;;;;;7.20;99.90;;;6.80;100.00;102385.31;5011794;28;20398;-78
2022/01/28 12:03:21;;;;;;;;;;;7.20;99.90;;;6.84;100.00;102378.44;4993863;28;19930;-79
2022/01/28 12:05:57;;;;;;;;;;;7.20;99.90;;;6.85;100.00;102383.69;5010761;28;19988;-78
2022/01/28 12:08:31;;;;;;;;;;;8.50;99.90;;;6.94;100.00;102375.16;4994603;28;19929;-78
2022/01/28 12:11:01;;;;;;;;;;;7.40;99.90;;;7.00;100.00;102367.47;4994222;28;19932;-79
2022/01/28 12:13:47;;;;;;;;;;;7.40;99.90;;;6.94;100.00;102359.47;5010282;28;19932;-78
2022/01/28 12:16:35;;;;;;;;;;;7.50;99.90;;;7.04;100.00;102340.50;4995810;28;19929;-78
2022/01/28 12:19:13;;;;;;;;;;;7.50;99.90;;;6.93;100.00;102349.84;4994952;28;19930;-78
2022/01/28 12:22:00;;;;;;;;;;;7.50;99.90;;;6.88;100.00;102352.38;5010159;28;19926;-78
2022/01/28 12:24:27;;;;;;;;;;;7.40;99.90;;;6.98;100.00;102350.84;4996128;28;20032;-78
2022/01/28 12:27:04;;;;;;;;;;;7.50;99.90;;;7.00;100.00;102358.72;5010017;28;19937;-78
2022/01/28 12:29:35;;;;;;;;;;;7.50;99.90;;;7.03;100.00;102345.72;5011237;28;19929;-80
2022/01/28 12:32:04;;;;;;;;;;;8.70;99.90;;;7.22;100.00;102353.13;5010162;28;20367;-77
2022/01/28 12:34:31;;;;;;;;;;;7.60;99.90;;;8.84;100.00;102342.13;5011358;28;19929;-79
2022/01/28 12:36:59;;;;;;;;;;;8.40;99.90;;;8.34;100.00;102343.91;4995711;28;19937;-79
2022/01/28 12:39:38;;;;;;;;;;;11.10;99.90;;;8.15;100.00;102333.09;4993999;28;20457;-76
2022/01/28 12:44:55;;;;;;;;;;;8.80;99.90;;;7.85;100.00;102336.91;5008693;28;19969;-77